sensor_id;sensor_type;location;lat;lon;timestamp;P1;durP1;ratioP1;P2;durP2;ratioP2
3083;SDS011;1552;51.952;7.618;2023-04-10T00:01:57;95.60;;;56.93;;
3083;SDS011;1552;51.952;7.618;2023-04-10T00:04:24;92.30;;;55.23;;
3083;SDS011;1552;51.952;7.618;2023-04-10T00:06:50;87.50;;;53.80;;
3083;SDS011;1552;51.952;7.618;2023-04-10T00:09:16;93.87;;;53.87;;
3083;SDS011;1552;51.952;7.618;2023-04-10T00:11:42;89.30;;;54.53;;
3083;SDS011;1552;51.952;7.618;2023-04-10T00:14:09;101.57;;;58.80;;
3083;SDS011;1552;51.952;7.618;2023-04-10T00:16:37;94.73;;;56.67;;
3083;SDS011;1552;51.952;7.618;2023-04-10T00:19:03;93.60;;;55.97;;
3083;SDS011;1552;51.952;7.618;2023-04-10T00:21:29;99.47;;;56.10;;
3083;SDS011;1552;51.952;7.618;2023-04-10T00:23:56;98.50;;;57.23;;
3083;SDS011;1552;51.952;7.618;2023-04-10T00:26:22;96.17;;;56.03;;
3083;SDS011;1552;51.952;7.618;2023-04-10T00:28:50;91.17;;;52.60;;
3083;SDS011;1552;51.952;7.618;2023-04-10T00:31:16;94.20;;;54.83;;
3083;SDS011;1552;51.952;7.618;2023-04-10T00:33:44;93.00;;;54.40;;
3083;SDS011;1552;51.952;7.618;2023-04-10T00:36:10;96.70;;;54.00;;
3083;SDS011;1552;51.952;7.618;2023-04-10T00:38:36;99.10;;;56.70;;
3083;SDS011;1552;51.952;7.618;2023-04-10T00:41:03;94.70;;;55.30;;
3083;SDS011;1552;51.952;7.618;2023-04-10T00:43:29;99.50;;;56.00;;
3083;SDS011;1552;51.952;7.618;2023-04-10T00:45:56;95.27;;;54.67;;
3083;SDS011;1552;51.952;7.618;2023-04-10T00:48:22;93.90;;;53.73;;
3083;SDS011;1552;51.952;7.618;2023-04-10T00:50:50;98.83;;;56.13;;
3083;SDS011;1552;51.952;7.618;2023-04-10T00:53:16;98.57;;;58.67;;
3083;SDS011;1552;51.952;7.618;2023-04-10T00:55:43;97.77;;;55.20;;
3083;SDS011;1552;51.952;7.618;2023-04-10T00:58:09;96.83;;;55.67;;
3083;SDS011;1552;51.952;7.618;2023-04-10T01:00:38;99.60;;;54.93;;
3083;SDS011;1552;51.952;7.618;2023-04-10T01:03:04;101.57;;;56.23;;
3083;SDS011;1552;51.952;7.618;2023-04-10T01:05:33;105.93;;;57.03;;
3083;SDS011;1552;51.952;7.618;2023-04-10T01:08:04;101.93;;;55.73;;
3083;SDS011;1552;51.952;7.618;2023-04-10T01:10:35;99.40;;;54.07;;
3083;SDS011;1552;51.952;7.618;2023-04-10T01:13:05;99.30;;;54.47;;
3083;SDS011;1552;51.952;7.618;2023-04-10T01:15:36;97.33;;;54.43;;
3083;SDS011;1552;51.952;7.618;2023-04-10T01:18:05;98.20;;;53.60;;
3083;SDS011;1552;51.952;7.618;2023-04-10T01:20:35;103.90;;;56.47;;
3083;SDS011;1552;51.952;7.618;2023-04-10T01:25:57;107.43;;;57.37;;
3083;SDS011;1552;51.952;7.618;2023-04-10T01:31:15;104.63;;;55.37;;
3083;SDS011;1552;51.952;7.618;2023-04-10T01:33:42;100.03;;;57.03;;
3083;SDS011;1552;51.952;7.618;2023-04-10T01:36:11;110.70;;;56.77;;
3083;SDS011;1552;51.952;7.618;2023-04-10T01:38:39;107.20;;;57.27;;
3083;SDS011;1552;51.952;7.618;2023-04-10T01:41:07;106.23;;;56.13;;
3083;SDS011;1552;51.952;7.618;2023-04-10T01:43:33;115.70;;;58.07;;
3083;SDS011;1552;51.952;7.618;2023-04-10T01:46:00;105.97;;;57.90;;
3083;SDS011;1552;51.952;7.618;2023-04-10T01:48:29;108.53;;;58.30;;
3083;SDS011;1552;51.952;7.618;2023-04-10T01:50:56;106.27;;;56.60;;
3083;SDS011;1552;51.952;7.618;2023-04-10T01:53:23;107.87;;;55.50;;
3083;SDS011;1552;51.952;7.618;2023-04-10T01:55:50;106.47;;;57.10;;
3083;SDS011;1552;51.952;7.618;2023-04-10T01:58:17;103.87;;;55.80;;
3083;SDS011;1552;51.952;7.618;2023-04-10T02:00:44;104.07;;;56.50;;
3083;SDS011;1552;51.952;7.618;2023-04-10T02:03:10;106.07;;;59.40;;
3083;SDS011;1552;51.952;7.618;2023-04-10T02:05:40;110.33;;;59.13;;
3083;SDS011;1552;51.952;7.618;2023-04-10T02:08:09;106.40;;;58.13;;
3083;SDS011;1552;51.952;7.618;2023-04-10T02:10:40;110.87;;;57.70;;
3083;SDS011;1552;51.952;7.618;2023-04-10T02:13:10;109.30;;;57.57;;
3083;SDS011;1552;51.952;7.618;2023-04-10T02:15:36;111.80;;;59.60;;
3083;SDS011;1552;51.952;7.618;2023-04-10T02:18:07;112.50;;;61.43;;
3083;SDS011;1552;51.952;7.618;2023-04-10T02:20:35;113.20;;;59.30;;
3083;SDS011;1552;51.952;7.618;2023-04-10T02:23:03;110.50;;;58.40;;
3083;SDS011;1552;51.952;7.618;2023-04-10T02:25:30;105.93;;;57.77;;
3083;SDS011;1552;51.952;7.618;2023-04-10T02:27:57;108.57;;;57.33;;
3083;SDS011;1552;51.952;7.618;2023-04-10T02:30:28;108.53;;;58.20;;
3083;SDS011;1552;51.952;7.618;2023-04-10T02:32:54;112.13;;;59.00;;
3083;SDS011;1552;51.952;7.618;2023-04-10T02:35:21;106.97;;;56.37;;
3083;SDS011;1552;51.952;7.618;2023-04-10T02:37:47;108.87;;;58.90;;
3083;SDS011;1552;51.952;7.618;2023-04-10T02:40:16;107.67;;;56.83;;
3083;SDS011;1552;51.952;7.618;2023-04-10T02:42:42;111.40;;;57.27;;
3083;SDS011;1552;51.952;7.618;2023-04-10T02:45:09;105.13;;;59.03;;
3083;SDS011;1552;51.952;7.618;2023-04-10T02:47:35;109.00;;;56.13;;
3083;SDS011;1552;51.952;7.618;2023-04-10T02:50:01;104.03;;;56.53;;
3083;SDS011;1552;51.952;7.618;2023-04-10T02:52:28;105.80;;;56.77;;
3083;SDS011;1552;51.952;7.618;2023-04-10T02:54:54;106.43;;;56.53;;
3083;SDS011;1552;51.952;7.618;2023-04-10T02:57:22;107.60;;;58.37;;
3083;SDS011;1552;51.952;7.618;2023-04-10T02:59:49;106.93;;;58.07;;
3083;SDS011;1552;51.952;7.618;2023-04-10T03:02:15;104.07;;;56.67;;
3083;SDS011;1552;51.952;7.618;2023-04-10T03:04:42;106.90;;;55.70;;
3083;SDS011;1552;51.952;7.618;2023-04-10T03:07:08;110.43;;;55.07;;
3083;SDS011;1552;51.952;7.618;2023-04-10T03:09:35;102.00;;;54.70;;
3083;SDS011;1552;51.952;7.618;2023-04-10T03:12:01;111.53;;;57.37;;
3083;SDS011;1552;51.952;7.618;2023-04-10T03:14:29;104.40;;;54.20;;
3083;SDS011;1552;51.952;7.618;2023-04-10T03:16:55;102.90;;;54.30;;
3083;SDS011;1552;51.952;7.618;2023-04-10T03:19:22;105.27;;;54.70;;
3083;SDS011;1552;51.952;7.618;2023-04-10T03:21:50;103.10;;;54.73;;
3083;SDS011;1552;51.952;7.618;2023-04-10T03:24:17;103.77;;;53.83;;
3083;SDS011;1552;51.952;7.618;2023-04-10T03:26:44;101.97;;;52.23;;
3083;SDS011;1552;51.952;7.618;2023-04-10T03:29:10;104.80;;;53.93;;
3083;SDS011;1552;51.952;7.618;2023-04-10T03:31:39;100.67;;;55.40;;
3083;SDS011;1552;51.952;7.618;2023-04-10T03:34:06;93.43;;;51.47;;
3083;SDS011;1552;51.952;7.618;2023-04-10T03:36:32;94.80;;;51.73;;
3083;SDS011;1552;51.952;7.618;2023-04-10T03:38:58;96.07;;;50.93;;
3083;SDS011;1552;51.952;7.618;2023-04-10T03:41:25;98.43;;;51.67;;
3083;SDS011;1552;51.952;7.618;2023-04-10T03:43:51;91.80;;;51.63;;
3083;SDS011;1552;51.952;7.618;2023-04-10T03:46:18;91.53;;;48.20;;
3083;SDS011;1552;51.952;7.618;2023-04-10T03:48:45;98.30;;;50.17;;
3083;SDS011;1552;51.952;7.618;2023-04-10T03:51:13;94.40;;;49.50;;
3083;SDS011;1552;51.952;7.618;2023-04-10T03:53:40;89.20;;;48.20;;
3083;SDS011;1552;51.952;7.618;2023-04-10T03:56:07;97.23;;;50.63;;
3083;SDS011;1552;51.952;7.618;2023-04-10T03:58:33;90.30;;;49.17;;
3083;SDS011;1552;51.952;7.618;2023-04-10T04:00:59;90.70;;;48.47;;
3083;SDS011;1552;51.952;7.618;2023-04-10T04:03:26;92.30;;;47.80;;
3083;SDS011;1552;51.952;7.618;2023-04-10T04:05:54;93.63;;;47.97;;
3083;SDS011;1552;51.952;7.618;2023-04-10T04:08:20;92.17;;;50.23;;
3083;SDS011;1552;51.952;7.618;2023-04-10T04:10:46;88.07;;;48.47;;
3083;SDS011;1552;51.952;7.618;2023-04-10T04:13:13;90.20;;;47.97;;
3083;SDS011;1552;51.952;7.618;2023-04-10T04:15:39;91.50;;;48.13;;
3083;SDS011;1552;51.952;7.618;2023-04-10T04:18:06;89.37;;;47.50;;
3083;SDS011;1552;51.952;7.618;2023-04-10T04:20:32;86.33;;;47.43;;
3083;SDS011;1552;51.952;7.618;2023-04-10T04:23:00;91.33;;;47.63;;
3083;SDS011;1552;51.952;7.618;2023-04-10T04:25:26;86.07;;;47.17;;
3083;SDS011;1552;51.952;7.618;2023-04-10T04:27:53;85.57;;;45.23;;
3083;SDS011;1552;51.952;7.618;2023-04-10T04:30:19;86.07;;;46.10;;
3083;SDS011;1552;51.952;7.618;2023-04-10T04:32:46;86.70;;;45.50;;
3083;SDS011;1552;51.952;7.618;2023-04-10T04:35:12;83.23;;;45.00;;
3083;SDS011;1552;51.952;7.618;2023-04-10T04:37:38;83.93;;;45.60;;
3083;SDS011;1552;51.952;7.618;2023-04-10T04:40:07;80.43;;;44.63;;
3083;SDS011;1552;51.952;7.618;2023-04-10T04:42:33;81.87;;;42.67;;
3083;SDS011;1552;51.952;7.618;2023-04-10T04:44:59;80.70;;;43.77;;
3083;SDS011;1552;51.952;7.618;2023-04-10T04:47:26;82.97;;;43.20;;
3083;SDS011;1552;51.952;7.618;2023-04-10T04:49:52;80.30;;;42.00;;
3083;SDS011;1552;51.952;7.618;2023-04-10T04:52:18;82.00;;;41.27;;
3083;SDS011;1552;51.952;7.618;2023-04-10T04:54:45;77.90;;;43.17;;
3083;SDS011;1552;51.952;7.618;2023-04-10T04:57:13;75.43;;;40.63;;
3083;SDS011;1552;51.952;7.618;2023-04-10T04:59:39;68.53;;;40.87;;
3083;SDS011;1552;51.952;7.618;2023-04-10T05:02:05;74.10;;;39.87;;
3083;SDS011;1552;51.952;7.618;2023-04-10T05:04:32;80.03;;;40.50;;
3083;SDS011;1552;51.952;7.618;2023-04-10T05:06:59;69.20;;;37.93;;
3083;SDS011;1552;51.952;7.618;2023-04-10T05:09:25;66.93;;;37.20;;
3083;SDS011;1552;51.952;7.618;2023-04-10T05:11:52;63.27;;;36.00;;
3083;SDS011;1552;51.952;7.618;2023-04-10T05:14:20;64.37;;;35.50;;
3083;SDS011;1552;51.952;7.618;2023-04-10T05:16:46;68.00;;;36.07;;
3083;SDS011;1552;51.952;7.618;2023-04-10T05:19:13;59.70;;;32.97;;
3083;SDS011;1552;51.952;7.618;2023-04-10T05:21:39;59.67;;;34.37;;
3083;SDS011;1552;51.952;7.618;2023-04-10T05:24:06;60.57;;;33.63;;
3083;SDS011;1552;51.952;7.618;2023-04-10T05:26:32;64.33;;;33.53;;
3083;SDS011;1552;51.952;7.618;2023-04-10T05:28:58;63.70;;;32.17;;
3083;SDS011;1552;51.952;7.618;2023-04-10T05:31:26;54.93;;;30.23;;
3083;SDS011;1552;51.952;7.618;2023-04-10T05:33:52;54.07;;;30.43;;
3083;SDS011;1552;51.952;7.618;2023-04-10T05:36:19;52.93;;;29.53;;
3083;SDS011;1552;51.952;7.618;2023-04-10T05:38:45;51.00;;;28.60;;
3083;SDS011;1552;51.952;7.618;2023-04-10T05:41:11;53.37;;;29.20;;
3083;SDS011;1552;51.952;7.618;2023-04-10T05:43:37;55.33;;;28.90;;
3083;SDS011;1552;51.952;7.618;2023-04-10T05:46:04;52.77;;;28.80;;
3083;SDS011;1552;51.952;7.618;2023-04-10T05:48:32;48.83;;;26.60;;
3083;SDS011;1552;51.952;7.618;2023-04-10T05:50:58;47.37;;;26.97;;
3083;SDS011;1552;51.952;7.618;2023-04-10T05:53:27;48.63;;;25.10;;
3083;SDS011;1552;51.952;7.618;2023-04-10T05:55:55;45.77;;;25.40;;
3083;SDS011;1552;51.952;7.618;2023-04-10T05:58:21;48.57;;;24.57;;
3083;SDS011;1552;51.952;7.618;2023-04-10T06:00:47;45.63;;;25.53;;
3083;SDS011;1552;51.952;7.618;2023-04-10T06:03:14;44.47;;;23.47;;
3083;SDS011;1552;51.952;7.618;2023-04-10T06:05:41;39.03;;;23.17;;
3083;SDS011;1552;51.952;7.618;2023-04-10T06:08:08;38.43;;;22.43;;
3083;SDS011;1552;51.952;7.618;2023-04-10T06:10:35;37.57;;;22.27;;
3083;SDS011;1552;51.952;7.618;2023-04-10T06:13:01;35.93;;;20.40;;
3083;SDS011;1552;51.952;7.618;2023-04-10T06:15:28;33.50;;;20.40;;
3083;SDS011;1552;51.952;7.618;2023-04-10T06:17:54;36.43;;;20.40;;
3083;SDS011;1552;51.952;7.618;2023-04-10T06:20:20;36.20;;;19.90;;
3083;SDS011;1552;51.952;7.618;2023-04-10T06:22:48;32.80;;;19.50;;
3083;SDS011;1552;51.952;7.618;2023-04-10T06:25:15;35.50;;;19.57;;
3083;SDS011;1552;51.952;7.618;2023-04-10T06:27:41;34.83;;;18.63;;
3083;SDS011;1552;51.952;7.618;2023-04-10T06:30:08;32.23;;;18.43;;
3083;SDS011;1552;51.952;7.618;2023-04-10T06:32:34;31.93;;;19.30;;
3083;SDS011;1552;51.952;7.618;2023-04-10T06:35:01;32.20;;;18.40;;
3083;SDS011;1552;51.952;7.618;2023-04-10T06:37:27;31.37;;;18.07;;
3083;SDS011;1552;51.952;7.618;2023-04-10T06:40:03;29.77;;;17.23;;
3083;SDS011;1552;51.952;7.618;2023-04-10T06:42:30;29.87;;;17.13;;
3083;SDS011;1552;51.952;7.618;2023-04-10T06:44:56;29.07;;;16.53;;
3083;SDS011;1552;51.952;7.618;2023-04-10T06:47:23;26.47;;;15.43;;
3083;SDS011;1552;51.952;7.618;2023-04-10T06:49:49;27.47;;;15.77;;
3083;SDS011;1552;51.952;7.618;2023-04-10T06:52:15;22.67;;;14.80;;
3083;SDS011;1552;51.952;7.618;2023-04-10T06:54:42;23.43;;;15.03;;
3083;SDS011;1552;51.952;7.618;2023-04-10T06:57:10;24.23;;;14.87;;
3083;SDS011;1552;51.952;7.618;2023-04-10T06:59:36;20.83;;;13.87;;
3083;SDS011;1552;51.952;7.618;2023-04-10T07:02:02;22.27;;;14.93;;
3083;SDS011;1552;51.952;7.618;2023-04-10T07:04:29;23.83;;;14.27;;
3083;SDS011;1552;51.952;7.618;2023-04-10T07:06:56;19.70;;;13.03;;
3083;SDS011;1552;51.952;7.618;2023-04-10T07:09:23;21.07;;;13.10;;
3083;SDS011;1552;51.952;7.618;2023-04-10T07:11:50;22.00;;;13.63;;
3083;SDS011;1552;51.952;7.618;2023-04-10T07:14:18;23.77;;;13.17;;
3083;SDS011;1552;51.952;7.618;2023-04-10T07:16:44;23.90;;;13.10;;
3083;SDS011;1552;51.952;7.618;2023-04-10T07:19:10;23.23;;;13.57;;
3083;SDS011;1552;51.952;7.618;2023-04-10T07:21:37;19.37;;;12.70;;
3083;SDS011;1552;51.952;7.618;2023-04-10T07:24:03;21.40;;;13.00;;
3083;SDS011;1552;51.952;7.618;2023-04-10T07:26:29;18.30;;;12.27;;
3083;SDS011;1552;51.952;7.618;2023-04-10T07:28:56;20.07;;;12.30;;
3083;SDS011;1552;51.952;7.618;2023-04-10T07:31:23;16.27;;;11.20;;
3083;SDS011;1552;51.952;7.618;2023-04-10T07:33:50;20.90;;;12.20;;
3083;SDS011;1552;51.952;7.618;2023-04-10T07:36:16;18.73;;;11.87;;
3083;SDS011;1552;51.952;7.618;2023-04-10T07:38:43;16.87;;;11.17;;
3083;SDS011;1552;51.952;7.618;2023-04-10T07:41:09;14.83;;;10.33;;
3083;SDS011;1552;51.952;7.618;2023-04-10T07:43:36;16.50;;;11.37;;
3083;SDS011;1552;51.952;7.618;2023-04-10T07:46:02;13.77;;;10.23;;
3083;SDS011;1552;51.952;7.618;2023-04-10T07:48:30;15.60;;;10.63;;
3083;SDS011;1552;51.952;7.618;2023-04-10T07:50:57;17.10;;;10.60;;
3083;SDS011;1552;51.952;7.618;2023-04-10T07:53:23;15.87;;;10.33;;
3083;SDS011;1552;51.952;7.618;2023-04-10T07:55:50;15.83;;;10.67;;
3083;SDS011;1552;51.952;7.618;2023-04-10T07:58:17;17.20;;;10.40;;
3083;SDS011;1552;51.952;7.618;2023-04-10T08:00:43;14.37;;;9.97;;
3083;SDS011;1552;51.952;7.618;2023-04-10T08:03:10;17.40;;;10.50;;
3083;SDS011;1552;51.952;7.618;2023-04-10T08:05:38;15.67;;;10.13;;
3083;SDS011;1552;51.952;7.618;2023-04-10T08:08:04;13.73;;;9.30;;
3083;SDS011;1552;51.952;7.618;2023-04-10T08:10:30;14.13;;;9.53;;
3083;SDS011;1552;51.952;7.618;2023-04-10T08:12:57;12.97;;;9.10;;
3083;SDS011;1552;51.952;7.618;2023-04-10T08:15:23;14.83;;;9.70;;
3083;SDS011;1552;51.952;7.618;2023-04-10T08:17:49;12.10;;;9.07;;
3083;SDS011;1552;51.952;7.618;2023-04-10T08:20:16;12.20;;;8.70;;
3083;SDS011;1552;51.952;7.618;2023-04-10T08:22:44;12.83;;;9.20;;
3083;SDS011;1552;51.952;7.618;2023-04-10T08:25:10;14.73;;;9.43;;
3083;SDS011;1552;51.952;7.618;2023-04-10T08:27:37;17.17;;;9.13;;
3083;SDS011;1552;51.952;7.618;2023-04-10T08:30:03;13.30;;;9.23;;
3083;SDS011;1552;51.952;7.618;2023-04-10T08:32:30;15.07;;;10.07;;
3083;SDS011;1552;51.952;7.618;2023-04-10T08:34:56;13.47;;;9.50;;
3083;SDS011;1552;51.952;7.618;2023-04-10T08:37:22;11.90;;;9.07;;
3083;SDS011;1552;51.952;7.618;2023-04-10T08:39:51;14.23;;;9.60;;
3083;SDS011;1552;51.952;7.618;2023-04-10T08:42:18;14.93;;;9.67;;
3083;SDS011;1552;51.952;7.618;2023-04-10T08:44:44;13.23;;;9.73;;
3083;SDS011;1552;51.952;7.618;2023-04-10T08:47:13;14.10;;;10.00;;
3083;SDS011;1552;51.952;7.618;2023-04-10T08:49:40;13.10;;;9.10;;
3083;SDS011;1552;51.952;7.618;2023-04-10T08:52:12;13.20;;;9.07;;
3083;SDS011;1552;51.952;7.618;2023-04-10T08:54:39;13.70;;;9.30;;
3083;SDS011;1552;51.952;7.618;2023-04-10T08:57:08;15.13;;;10.03;;
3083;SDS011;1552;51.952;7.618;2023-04-10T08:59:41;13.40;;;9.50;;
3083;SDS011;1552;51.952;7.618;2023-04-10T09:02:08;16.97;;;9.90;;
3083;SDS011;1552;51.952;7.618;2023-04-10T09:04:34;14.03;;;9.37;;
3083;SDS011;1552;51.952;7.618;2023-04-10T09:07:01;14.83;;;11.03;;
3083;SDS011;1552;51.952;7.618;2023-04-10T09:09:27;15.97;;;10.20;;
3083;SDS011;1552;51.952;7.618;2023-04-10T09:11:57;15.07;;;9.77;;
3083;SDS011;1552;51.952;7.618;2023-04-10T09:14:26;13.50;;;9.77;;
3083;SDS011;1552;51.952;7.618;2023-04-10T09:16:55;15.93;;;9.83;;
3083;SDS011;1552;51.952;7.618;2023-04-10T09:19:35;13.37;;;9.13;;
3083;SDS011;1552;51.952;7.618;2023-04-10T09:22:01;12.93;;;8.97;;
3083;SDS011;1552;51.952;7.618;2023-04-10T09:24:27;11.77;;;8.30;;
3083;SDS011;1552;51.952;7.618;2023-04-10T09:26:54;12.37;;;8.90;;
3083;SDS011;1552;51.952;7.618;2023-04-10T09:29:20;14.97;;;8.50;;
3083;SDS011;1552;51.952;7.618;2023-04-10T09:31:48;12.83;;;7.87;;
3083;SDS011;1552;51.952;7.618;2023-04-10T09:34:16;10.63;;;7.83;;
3083;SDS011;1552;51.952;7.618;2023-04-10T09:36:43;8.87;;;6.67;;
3083;SDS011;1552;51.952;7.618;2023-04-10T09:39:10;8.73;;;6.63;;
3083;SDS011;1552;51.952;7.618;2023-04-10T09:41:47;7.47;;;5.90;;
3083;SDS011;1552;51.952;7.618;2023-04-10T09:44:16;8.17;;;5.63;;
3083;SDS011;1552;51.952;7.618;2023-04-10T09:46:42;7.03;;;5.30;;
3083;SDS011;1552;51.952;7.618;2023-04-10T09:49:10;8.95;;;5.55;;
3083;SDS011;1552;51.952;7.618;2023-04-10T09:51:37;4.97;;;4.10;;
3083;SDS011;1552;51.952;7.618;2023-04-10T09:54:03;5.30;;;4.30;;
3083;SDS011;1552;51.952;7.618;2023-04-10T09:56:30;5.60;;;4.17;;
3083;SDS011;1552;51.952;7.618;2023-04-10T09:59:00;7.35;;;4.40;;
3083;SDS011;1552;51.952;7.618;2023-04-10T10:01:28;6.15;;;4.10;;
3083;SDS011;1552;51.952;7.618;2023-04-10T10:03:58;4.07;;;3.67;;
3083;SDS011;1552;51.952;7.618;2023-04-10T10:06:27;5.68;;;3.53;;
3083;SDS011;1552;51.952;7.618;2023-04-10T10:08:55;4.20;;;3.63;;
3083;SDS011;1552;51.952;7.618;2023-04-10T10:11:22;6.90;;;4.45;;
3083;SDS011;1552;51.952;7.618;2023-04-10T10:13:50;5.47;;;3.72;;
3083;SDS011;1552;51.952;7.618;2023-04-10T10:16:19;4.75;;;4.20;;
3083;SDS011;1552;51.952;7.618;2023-04-10T10:18:46;4.68;;;3.70;;
3083;SDS011;1552;51.952;7.618;2023-04-10T10:21:16;4.30;;;3.45;;
3083;SDS011;1552;51.952;7.618;2023-04-10T10:23:48;4.63;;;3.50;;
3083;SDS011;1552;51.952;7.618;2023-04-10T10:26:18;3.88;;;3.35;;
3083;SDS011;1552;51.952;7.618;2023-04-10T10:28:44;4.05;;;3.53;;
3083;SDS011;1552;51.952;7.618;2023-04-10T10:31:11;8.23;;;3.75;;
3083;SDS011;1552;51.952;7.618;2023-04-10T10:33:38;4.75;;;3.63;;
3083;SDS011;1552;51.952;7.618;2023-04-10T10:36:07;4.20;;;3.80;;
3083;SDS011;1552;51.952;7.618;2023-04-10T10:38:36;4.40;;;3.67;;
3083;SDS011;1552;51.952;7.618;2023-04-10T10:41:08;4.85;;;3.80;;
3083;SDS011;1552;51.952;7.618;2023-04-10T10:43:37;4.43;;;3.28;;
3083;SDS011;1552;51.952;7.618;2023-04-10T10:46:11;4.97;;;3.70;;
3083;SDS011;1552;51.952;7.618;2023-04-10T10:48:40;4.70;;;3.80;;
3083;SDS011;1552;51.952;7.618;2023-04-10T10:51:07;4.00;;;3.15;;
3083;SDS011;1552;51.952;7.618;2023-04-10T10:53:35;5.72;;;3.83;;
3083;SDS011;1552;51.952;7.618;2023-04-10T10:58:49;4.00;;;3.15;;
3083;SDS011;1552;51.952;7.618;2023-04-10T11:01:16;5.45;;;3.53;;
3083;SDS011;1552;51.952;7.618;2023-04-10T11:03:43;4.43;;;3.38;;
3083;SDS011;1552;51.952;7.618;2023-04-10T11:06:10;4.70;;;3.60;;
3083;SDS011;1552;51.952;7.618;2023-04-10T11:08:40;4.97;;;3.58;;
3083;SDS011;1552;51.952;7.618;2023-04-10T11:11:09;4.95;;;3.55;;
3083;SDS011;1552;51.952;7.618;2023-04-10T11:13:36;5.82;;;3.65;;
3083;SDS011;1552;51.952;7.618;2023-04-10T11:16:05;4.30;;;3.88;;
3083;SDS011;1552;51.952;7.618;2023-04-10T11:21:17;4.30;;;3.63;;
3083;SDS011;1552;51.952;7.618;2023-04-10T11:24:01;5.70;;;3.78;;
3083;SDS011;1552;51.952;7.618;2023-04-10T11:26:37;4.80;;;4.00;;
3083;SDS011;1552;51.952;7.618;2023-04-10T11:29:05;5.50;;;3.55;;
3083;SDS011;1552;51.952;7.618;2023-04-10T11:31:33;4.25;;;3.75;;
3083;SDS011;1552;51.952;7.618;2023-04-10T11:34:00;4.75;;;3.83;;
3083;SDS011;1552;51.952;7.618;2023-04-10T11:36:27;4.72;;;3.72;;
3083;SDS011;1552;51.952;7.618;2023-04-10T11:38:54;4.10;;;3.67;;
3083;SDS011;1552;51.952;7.618;2023-04-10T11:41:24;4.72;;;3.83;;
3083;SDS011;1552;51.952;7.618;2023-04-10T11:43:51;3.72;;;3.35;;
3083;SDS011;1552;51.952;7.618;2023-04-10T11:46:18;5.30;;;3.85;;
3083;SDS011;1552;51.952;7.618;2023-04-10T11:48:46;4.07;;;3.67;;
3083;SDS011;1552;51.952;7.618;2023-04-10T11:51:12;4.25;;;3.42;;
3083;SDS011;1552;51.952;7.618;2023-04-10T11:53:39;5.55;;;3.83;;
3083;SDS011;1552;51.952;7.618;2023-04-10T11:56:13;3.92;;;3.45;;
3083;SDS011;1552;51.952;7.618;2023-04-10T11:58:40;4.05;;;3.65;;
3083;SDS011;1552;51.952;7.618;2023-04-10T12:01:06;4.43;;;3.60;;
3083;SDS011;1552;51.952;7.618;2023-04-10T12:03:36;4.47;;;3.90;;
3083;SDS011;1552;51.952;7.618;2023-04-10T12:06:05;4.05;;;3.50;;
3083;SDS011;1552;51.952;7.618;2023-04-10T12:08:32;5.50;;;3.80;;
3083;SDS011;1552;51.952;7.618;2023-04-10T12:10:58;4.40;;;3.65;;
3083;SDS011;1552;51.952;7.618;2023-04-10T12:13:25;5.85;;;3.97;;
3083;SDS011;1552;51.952;7.618;2023-04-10T12:15:52;4.85;;;4.10;;
3083;SDS011;1552;51.952;7.618;2023-04-10T12:18:18;3.58;;;2.75;;
3083;SDS011;1552;51.952;7.618;2023-04-10T12:20:45;3.13;;;2.63;;
3083;SDS011;1552;51.952;7.618;2023-04-10T12:23:13;2.92;;;2.63;;
3083;SDS011;1552;51.952;7.618;2023-04-10T12:25:40;3.25;;;2.20;;
3083;SDS011;1552;51.952;7.618;2023-04-10T12:28:06;2.25;;;2.05;;
3083;SDS011;1552;51.952;7.618;2023-04-10T12:30:33;2.40;;;2.20;;
3083;SDS011;1552;51.952;7.618;2023-04-10T12:32:59;2.47;;;2.25;;
3083;SDS011;1552;51.952;7.618;2023-04-10T12:35:38;2.22;;;1.83;;
3083;SDS011;1552;51.952;7.618;2023-04-10T12:38:06;2.40;;;2.05;;
3083;SDS011;1552;51.952;7.618;2023-04-10T12:40:34;1.75;;;1.58;;
3083;SDS011;1552;51.952;7.618;2023-04-10T12:43:02;2.28;;;1.92;;
3083;SDS011;1552;51.952;7.618;2023-04-10T12:45:40;2.88;;;1.90;;
3083;SDS011;1552;51.952;7.618;2023-04-10T12:48:06;2.78;;;1.92;;
3083;SDS011;1552;51.952;7.618;2023-04-10T12:50:33;5.03;;;1.77;;
3083;SDS011;1552;51.952;7.618;2023-04-10T12:53:00;2.08;;;1.90;;
3083;SDS011;1552;51.952;7.618;2023-04-10T12:55:27;1.80;;;1.70;;
3083;SDS011;1552;51.952;7.618;2023-04-10T12:57:55;2.17;;;1.70;;
3083;SDS011;1552;51.952;7.618;2023-04-10T13:00:22;2.22;;;1.70;;
3083;SDS011;1552;51.952;7.618;2023-04-10T13:02:48;3.13;;;2.20;;
3083;SDS011;1552;51.952;7.618;2023-04-10T13:05:15;1.88;;;1.52;;
3083;SDS011;1552;51.952;7.618;2023-04-10T13:07:41;2.15;;;1.85;;
3083;SDS011;1552;51.952;7.618;2023-04-10T13:10:08;2.20;;;2.00;;
3083;SDS011;1552;51.952;7.618;2023-04-10T13:12:34;1.88;;;1.77;;
3083;SDS011;1552;51.952;7.618;2023-04-10T13:15:03;2.20;;;2.00;;
3083;SDS011;1552;51.952;7.618;2023-04-10T13:17:31;3.60;;;1.98;;
3083;SDS011;1552;51.952;7.618;2023-04-10T13:19:57;1.98;;;1.77;;
3083;SDS011;1552;51.952;7.618;2023-04-10T13:22:24;1.75;;;1.65;;
3083;SDS011;1552;51.952;7.618;2023-04-10T13:24:50;2.40;;;1.85;;
3083;SDS011;1552;51.952;7.618;2023-04-10T13:27:16;1.92;;;1.70;;
3083;SDS011;1552;51.952;7.618;2023-04-10T13:29:43;1.90;;;1.80;;
3083;SDS011;1552;51.952;7.618;2023-04-10T13:32:10;2.53;;;1.90;;
3083;SDS011;1552;51.952;7.618;2023-04-10T13:34:37;4.35;;;2.15;;
3083;SDS011;1552;51.952;7.618;2023-04-10T13:37:03;2.03;;;1.83;;
3083;SDS011;1552;51.952;7.618;2023-04-10T13:39:30;3.50;;;1.95;;
3083;SDS011;1552;51.952;7.618;2023-04-10T13:41:56;1.65;;;1.55;;
3083;SDS011;1552;51.952;7.618;2023-04-10T13:44:23;2.33;;;1.88;;
3083;SDS011;1552;51.952;7.618;2023-04-10T13:46:49;1.92;;;1.80;;
3083;SDS011;1552;51.952;7.618;2023-04-10T13:49:18;3.63;;;1.70;;
3083;SDS011;1552;51.952;7.618;2023-04-10T13:51:44;3.85;;;2.80;;
3083;SDS011;1552;51.952;7.618;2023-04-10T13:54:11;3.55;;;2.67;;
3083;SDS011;1552;51.952;7.618;2023-04-10T13:56:37;2.20;;;2.00;;
3083;SDS011;1552;51.952;7.618;2023-04-10T13:59:04;4.03;;;1.70;;
3083;SDS011;1552;51.952;7.618;2023-04-10T14:01:31;3.08;;;1.95;;
3083;SDS011;1552;51.952;7.618;2023-04-10T14:03:57;1.98;;;1.77;;
3083;SDS011;1552;51.952;7.618;2023-04-10T14:06:25;2.08;;;1.83;;
3083;SDS011;1552;51.952;7.618;2023-04-10T14:08:51;2.00;;;1.80;;
3083;SDS011;1552;51.952;7.618;2023-04-10T14:11:18;2.03;;;1.83;;
3083;SDS011;1552;51.952;7.618;2023-04-10T14:13:45;2.50;;;1.95;;
3083;SDS011;1552;51.952;7.618;2023-04-10T14:16:12;3.05;;;1.83;;
3083;SDS011;1552;51.952;7.618;2023-04-10T14:18:38;2.30;;;2.10;;
3083;SDS011;1552;51.952;7.618;2023-04-10T14:21:05;1.98;;;1.73;;
3083;SDS011;1552;51.952;7.618;2023-04-10T14:23:33;2.22;;;2.03;;
3083;SDS011;1552;51.952;7.618;2023-04-10T14:25:59;2.30;;;2.03;;
3083;SDS011;1552;51.952;7.618;2023-04-10T14:28:25;2.10;;;1.90;;
3083;SDS011;1552;51.952;7.618;2023-04-10T14:30:53;2.15;;;1.67;;
3083;SDS011;1552;51.952;7.618;2023-04-10T14:33:19;2.05;;;1.85;;
3083;SDS011;1552;51.952;7.618;2023-04-10T14:35:46;2.05;;;1.85;;
3083;SDS011;1552;51.952;7.618;2023-04-10T14:38:12;2.30;;;2.03;;
3083;SDS011;1552;51.952;7.618;2023-04-10T14:40:40;2.22;;;1.92;;
3083;SDS011;1552;51.952;7.618;2023-04-10T14:43:09;2.08;;;1.85;;
3083;SDS011;1552;51.952;7.618;2023-04-10T14:45:36;1.95;;;1.70;;
3083;SDS011;1552;51.952;7.618;2023-04-10T14:48:02;2.60;;;2.10;;
3083;SDS011;1552;51.952;7.618;2023-04-10T14:50:30;2.65;;;2.10;;
3083;SDS011;1552;51.952;7.618;2023-04-10T14:52:56;2.20;;;1.95;;
3083;SDS011;1552;51.952;7.618;2023-04-10T14:55:24;2.40;;;1.80;;
3083;SDS011;1552;51.952;7.618;2023-04-10T14:57:52;2.17;;;1.92;;
3083;SDS011;1552;51.952;7.618;2023-04-10T15:00:18;2.72;;;2.30;;
3083;SDS011;1552;51.952;7.618;2023-04-10T15:02:45;2.78;;;2.50;;
3083;SDS011;1552;51.952;7.618;2023-04-10T15:05:11;2.28;;;2.08;;
3083;SDS011;1552;51.952;7.618;2023-04-10T15:07:38;2.28;;;2.00;;
3083;SDS011;1552;51.952;7.618;2023-04-10T15:10:04;2.30;;;2.10;;